Karl Stefan Memorial Airport Norfolk US
ICAO: KOFK
IATA: OFK
Category: Medium
Scheduled Services: No

Elevation: 1573 ft
TransAlt. 18000 ft.

Airport Communications:
ASOS:119.025
COLUMBUS RDO:122.15
CTAF/UNICOM:122.7

KOFK Zoom In..

If you have problems with the map follow the link
https://www.worldairports.se/pages/airport.php?
ICAO=KOFK

Runways:

(A) RW 01 length 5800 ft width 100 ft
ILS 111.50 / hdg 14

(B) RW 14 length 5800 ft width 100 ft
---- / hdg 137

(C) RW 19 length 5800 ft width 100 ft
---- / hdg 194

(D) RW 32 length 5800 ft width 100 ft
---- / hdg 317

Location; KOFK
Day. 12 / Time. 22.56 Zulu
* Altimeter: 30.03
* Temperature: -02° c. -28.4°f.
* Wind from: 270° Speed 03 kn.
Dewpoint: -04° c.
Visibility: 10 Statute Miles.
Clouds: Overcast 800 ft.

KOFK 122256Z AUTO 27003KT 10SM OVC008 M02/M04 A3003 RMK AO2 SLP187 T10171044


Wind From 270°
Speed 03 kn.

 
 
jpsmedia worldairports.se 2019   terms of use